sensor_id;sensor_type;location;lat;lon;timestamp;temperature;humidity
53272;DHT22;39160;48.580;7.756;2024-02-21T00:00:55;10.80;99.90
53272;DHT22;39160;48.580;7.756;2024-02-21T00:05:46;10.80;99.90
53272;DHT22;39160;48.580;7.756;2024-02-21T00:10:37;10.80;99.90
53272;DHT22;39160;48.580;7.756;2024-02-21T00:15:27;10.70;99.90
53272;DHT22;39160;48.580;7.756;2024-02-21T00:20:18;10.70;99.90
53272;DHT22;39160;48.580;7.756;2024-02-21T00:25:09;10.70;99.90
53272;DHT22;39160;48.580;7.756;2024-02-21T00:29:59;10.60;99.90
53272;DHT22;39160;48.580;7.756;2024-02-21T00:34:50;10.60;99.90
53272;DHT22;39160;48.580;7.756;2024-02-21T00:39:41;10.60;99.90
53272;DHT22;39160;48.580;7.756;2024-02-21T00:44:33;10.60;99.90
53272;DHT22;39160;48.580;7.756;2024-02-21T00:49:23;10.50;99.90
53272;DHT22;39160;48.580;7.756;2024-02-21T00:54:14;10.60;99.90
53272;DHT22;39160;48.580;7.756;2024-02-21T00:59:04;10.50;99.90
53272;DHT22;39160;48.580;7.756;2024-02-21T01:03:55;10.50;99.90
53272;DHT22;39160;48.580;7.756;2024-02-21T01:08:49;10.50;99.90
53272;DHT22;39160;48.580;7.756;2024-02-21T01:13:40;10.50;99.90
53272;DHT22;39160;48.580;7.756;2024-02-21T01:18:31;10.50;99.90
53272;DHT22;39160;48.580;7.756;2024-02-21T01:23:21;10.50;99.90
53272;DHT22;39160;48.580;7.756;2024-02-21T01:28:12;10.50;99.90
53272;DHT22;39160;48.580;7.756;2024-02-21T01:33:03;10.50;99.90
53272;DHT22;39160;48.580;7.756;2024-02-21T01:37:54;10.40;99.90
53272;DHT22;39160;48.580;7.756;2024-02-21T01:42:44;10.40;99.90
53272;DHT22;39160;48.580;7.756;2024-02-21T01:47:36;10.40;99.90
53272;DHT22;39160;48.580;7.756;2024-02-21T01:52:28;10.40;99.90
53272;DHT22;39160;48.580;7.756;2024-02-21T01:57:19;10.30;99.90
53272;DHT22;39160;48.580;7.756;2024-02-21T02:02:10;10.30;99.90
53272;DHT22;39160;48.580;7.756;2024-02-21T02:07:02;10.20;99.90
53272;DHT22;39160;48.580;7.756;2024-02-21T02:11:53;10.20;99.90
53272;DHT22;39160;48.580;7.756;2024-02-21T02:16:49;10.30;99.90
53272;DHT22;39160;48.580;7.756;2024-02-21T02:21:40;10.20;99.90
53272;DHT22;39160;48.580;7.756;2024-02-21T02:26:31;10.20;99.90
53272;DHT22;39160;48.580;7.756;2024-02-21T02:31:22;10.20;99.90
53272;DHT22;39160;48.580;7.756;2024-02-21T02:36:13;10.20;99.90
53272;DHT22;39160;48.580;7.756;2024-02-21T02:41:03;10.20;99.90
53272;DHT22;39160;48.580;7.756;2024-02-21T02:45:54;10.20;99.90
53272;DHT22;39160;48.580;7.756;2024-02-21T02:50:46;10.20;99.90
53272;DHT22;39160;48.580;7.756;2024-02-21T02:55:37;10.20;99.90
53272;DHT22;39160;48.580;7.756;2024-02-21T03:00:27;10.10;99.90
53272;DHT22;39160;48.580;7.756;2024-02-21T03:05:19;10.10;99.90
53272;DHT22;39160;48.580;7.756;2024-02-21T03:10:10;10.00;99.90
53272;DHT22;39160;48.580;7.756;2024-02-21T03:15:02;10.00;99.90
53272;DHT22;39160;48.580;7.756;2024-02-21T03:19:53;10.00;99.90
53272;DHT22;39160;48.580;7.756;2024-02-21T03:24:44;10.00;99.90
53272;DHT22;39160;48.580;7.756;2024-02-21T03:29:35;9.90;99.90
53272;DHT22;39160;48.580;7.756;2024-02-21T03:34:25;9.90;99.90
53272;DHT22;39160;48.580;7.756;2024-02-21T03:39:16;9.90;99.90
53272;DHT22;39160;48.580;7.756;2024-02-21T03:44:07;9.90;99.90
53272;DHT22;39160;48.580;7.756;2024-02-21T03:48:57;9.90;99.90
53272;DHT22;39160;48.580;7.756;2024-02-21T03:53:48;9.80;99.90
53272;DHT22;39160;48.580;7.756;2024-02-21T03:58:40;9.80;99.90
53272;DHT22;39160;48.580;7.756;2024-02-21T04:03:31;9.80;99.90
53272;DHT22;39160;48.580;7.756;2024-02-21T04:08:22;9.70;99.90
53272;DHT22;39160;48.580;7.756;2024-02-21T04:13:12;9.70;99.90
53272;DHT22;39160;48.580;7.756;2024-02-21T04:18:03;9.70;99.90
53272;DHT22;39160;48.580;7.756;2024-02-21T04:22:54;9.70;99.90
53272;DHT22;39160;48.580;7.756;2024-02-21T04:27:44;9.70;99.90
53272;DHT22;39160;48.580;7.756;2024-02-21T04:32:35;9.60;99.90
53272;DHT22;39160;48.580;7.756;2024-02-21T04:37:26;9.60;99.90
53272;DHT22;39160;48.580;7.756;2024-02-21T04:42:17;9.50;99.90
53272;DHT22;39160;48.580;7.756;2024-02-21T04:47:08;9.40;99.90
53272;DHT22;39160;48.580;7.756;2024-02-21T04:51:58;9.30;99.90
53272;DHT22;39160;48.580;7.756;2024-02-21T04:56:49;9.30;99.90
53272;DHT22;39160;48.580;7.756;2024-02-21T05:01:40;9.30;99.90
53272;DHT22;39160;48.580;7.756;2024-02-21T05:06:31;9.20;99.90
53272;DHT22;39160;48.580;7.756;2024-02-21T05:11:22;9.30;99.90
53272;DHT22;39160;48.580;7.756;2024-02-21T05:16:12;9.30;99.90
53272;DHT22;39160;48.580;7.756;2024-02-21T05:21:03;9.30;99.90
53272;DHT22;39160;48.580;7.756;2024-02-21T05:25:54;9.30;99.90
53272;DHT22;39160;48.580;7.756;2024-02-21T05:30:45;9.20;99.90
53272;DHT22;39160;48.580;7.756;2024-02-21T05:35:36;9.20;99.90
53272;DHT22;39160;48.580;7.756;2024-02-21T05:40:27;9.20;99.90
53272;DHT22;39160;48.580;7.756;2024-02-21T05:45:18;9.20;99.90
53272;DHT22;39160;48.580;7.756;2024-02-21T05:50:09;9.10;99.90
53272;DHT22;39160;48.580;7.756;2024-02-21T05:55:00;9.10;99.90
53272;DHT22;39160;48.580;7.756;2024-02-21T05:59:50;9.10;99.90
53272;DHT22;39160;48.580;7.756;2024-02-21T06:04:41;9.10;99.90
53272;DHT22;39160;48.580;7.756;2024-02-21T06:09:33;9.10;99.90
53272;DHT22;39160;48.580;7.756;2024-02-21T06:14:23;9.00;99.90
53272;DHT22;39160;48.580;7.756;2024-02-21T06:19:14;9.00;99.90
53272;DHT22;39160;48.580;7.756;2024-02-21T06:24:05;9.00;99.90
53272;DHT22;39160;48.580;7.756;2024-02-21T06:28:57;9.00;99.90
53272;DHT22;39160;48.580;7.756;2024-02-21T06:33:50;9.00;99.90
53272;DHT22;39160;48.580;7.756;2024-02-21T06:38:40;8.90;99.90
53272;DHT22;39160;48.580;7.756;2024-02-21T06:43:31;8.90;99.90
53272;DHT22;39160;48.580;7.756;2024-02-21T06:48:21;8.90;99.90
53272;DHT22;39160;48.580;7.756;2024-02-21T06:53:12;8.90;99.90
53272;DHT22;39160;48.580;7.756;2024-02-21T06:58:03;8.80;99.90
53272;DHT22;39160;48.580;7.756;2024-02-21T07:02:54;8.90;99.90
53272;DHT22;39160;48.580;7.756;2024-02-21T07:07:44;8.80;99.90
53272;DHT22;39160;48.580;7.756;2024-02-21T07:12:35;8.90;99.90
53272;DHT22;39160;48.580;7.756;2024-02-21T07:17:27;8.90;99.90
53272;DHT22;39160;48.580;7.756;2024-02-21T07:22:18;8.90;99.90
53272;DHT22;39160;48.580;7.756;2024-02-21T07:27:08;8.80;99.90
53272;DHT22;39160;48.580;7.756;2024-02-21T07:31:59;8.90;99.90
53272;DHT22;39160;48.580;7.756;2024-02-21T07:36:50;8.90;99.90
53272;DHT22;39160;48.580;7.756;2024-02-21T07:41:40;8.90;99.90
53272;DHT22;39160;48.580;7.756;2024-02-21T07:46:33;8.90;99.90
53272;DHT22;39160;48.580;7.756;2024-02-21T07:51:28;9.00;99.90
53272;DHT22;39160;48.580;7.756;2024-02-21T07:56:18;8.90;99.90
53272;DHT22;39160;48.580;7.756;2024-02-21T08:01:10;9.00;99.90
53272;DHT22;39160;48.580;7.756;2024-02-21T08:06:01;9.10;99.90
53272;DHT22;39160;48.580;7.756;2024-02-21T08:10:53;9.20;99.90
53272;DHT22;39160;48.580;7.756;2024-02-21T08:15:43;9.20;99.90
53272;DHT22;39160;48.580;7.756;2024-02-21T08:20:34;9.20;99.90
53272;DHT22;39160;48.580;7.756;2024-02-21T08:25:25;9.30;99.90
53272;DHT22;39160;48.580;7.756;2024-02-21T08:30:15;9.50;99.90
53272;DHT22;39160;48.580;7.756;2024-02-21T08:35:07;9.40;99.90
53272;DHT22;39160;48.580;7.756;2024-02-21T08:39:58;9.50;99.90
53272;DHT22;39160;48.580;7.756;2024-02-21T08:44:48;9.50;99.90
53272;DHT22;39160;48.580;7.756;2024-02-21T08:49:39;9.50;99.90
53272;DHT22;39160;48.580;7.756;2024-02-21T08:54:30;9.50;99.90
53272;DHT22;39160;48.580;7.756;2024-02-21T08:59:23;9.60;99.90
53272;DHT22;39160;48.580;7.756;2024-02-21T09:04:14;9.70;99.90
53272;DHT22;39160;48.580;7.756;2024-02-21T09:09:05;9.70;99.90
53272;DHT22;39160;48.580;7.756;2024-02-21T09:13:58;9.60;99.90
53272;DHT22;39160;48.580;7.756;2024-02-21T09:18:49;9.70;99.90
53272;DHT22;39160;48.580;7.756;2024-02-21T09:23:39;9.80;99.90
53272;DHT22;39160;48.580;7.756;2024-02-21T09:28:30;9.90;99.90
53272;DHT22;39160;48.580;7.756;2024-02-21T09:33:21;9.90;99.90
53272;DHT22;39160;48.580;7.756;2024-02-21T09:38:12;10.00;99.90
53272;DHT22;39160;48.580;7.756;2024-02-21T09:43:04;10.10;99.90
53272;DHT22;39160;48.580;7.756;2024-02-21T09:48:23;10.10;99.90
53272;DHT22;39160;48.580;7.756;2024-02-21T09:53:16;10.10;99.90
53272;DHT22;39160;48.580;7.756;2024-02-21T09:58:10;10.10;99.90
53272;DHT22;39160;48.580;7.756;2024-02-21T10:03:02;10.10;99.90
53272;DHT22;39160;48.580;7.756;2024-02-21T10:07:58;10.20;99.90
53272;DHT22;39160;48.580;7.756;2024-02-21T10:12:52;10.20;99.90
53272;DHT22;39160;48.580;7.756;2024-02-21T10:17:45;10.40;99.90
53272;DHT22;39160;48.580;7.756;2024-02-21T10:22:37;10.40;99.90
53272;DHT22;39160;48.580;7.756;2024-02-21T10:27:29;10.50;99.90
53272;DHT22;39160;48.580;7.756;2024-02-21T10:32:21;10.50;99.90
53272;DHT22;39160;48.580;7.756;2024-02-21T10:37:13;10.60;99.90
53272;DHT22;39160;48.580;7.756;2024-02-21T10:42:04;10.60;99.90
53272;DHT22;39160;48.580;7.756;2024-02-21T10:46:55;10.60;99.90
53272;DHT22;39160;48.580;7.756;2024-02-21T10:51:47;10.70;99.90
53272;DHT22;39160;48.580;7.756;2024-02-21T10:56:39;10.80;99.90
53272;DHT22;39160;48.580;7.756;2024-02-21T11:01:31;10.90;99.90
53272;DHT22;39160;48.580;7.756;2024-02-21T11:06:23;10.90;99.90
53272;DHT22;39160;48.580;7.756;2024-02-21T11:11:15;11.00;99.90
53272;DHT22;39160;48.580;7.756;2024-02-21T11:16:12;11.00;99.90
53272;DHT22;39160;48.580;7.756;2024-02-21T11:21:03;11.00;99.90
53272;DHT22;39160;48.580;7.756;2024-02-21T11:26:07;11.00;99.90
53272;DHT22;39160;48.580;7.756;2024-02-21T11:31:08;11.00;99.90
53272;DHT22;39160;48.580;7.756;2024-02-21T11:35:59;11.10;99.90
53272;DHT22;39160;48.580;7.756;2024-02-21T11:40:50;11.10;99.90
53272;DHT22;39160;48.580;7.756;2024-02-21T11:45:41;11.10;99.90
53272;DHT22;39160;48.580;7.756;2024-02-21T11:50:35;11.10;99.90
53272;DHT22;39160;48.580;7.756;2024-02-21T11:55:30;11.20;99.90
53272;DHT22;39160;48.580;7.756;2024-02-21T12:00:21;11.20;99.90
53272;DHT22;39160;48.580;7.756;2024-02-21T12:05:14;11.30;99.90
53272;DHT22;39160;48.580;7.756;2024-02-21T12:10:11;11.30;99.90
53272;DHT22;39160;48.580;7.756;2024-02-21T12:15:05;11.30;99.90
53272;DHT22;39160;48.580;7.756;2024-02-21T12:19:56;11.30;99.90
53272;DHT22;39160;48.580;7.756;2024-02-21T12:24:47;11.30;99.90
53272;DHT22;39160;48.580;7.756;2024-02-21T12:29:38;11.30;99.90
53272;DHT22;39160;48.580;7.756;2024-02-21T12:34:29;11.40;99.90
53272;DHT22;39160;48.580;7.756;2024-02-21T12:39:22;11.40;99.90
53272;DHT22;39160;48.580;7.756;2024-02-21T12:44:13;11.40;99.90
53272;DHT22;39160;48.580;7.756;2024-02-21T12:49:04;11.50;99.90
53272;DHT22;39160;48.580;7.756;2024-02-21T12:53:55;11.60;99.90
53272;DHT22;39160;48.580;7.756;2024-02-21T12:58:46;11.60;99.90
53272;DHT22;39160;48.580;7.756;2024-02-21T13:03:36;11.70;99.90
53272;DHT22;39160;48.580;7.756;2024-02-21T13:08:28;11.70;99.90
53272;DHT22;39160;48.580;7.756;2024-02-21T13:13:19;11.70;99.90
53272;DHT22;39160;48.580;7.756;2024-02-21T13:18:10;11.80;99.90
53272;DHT22;39160;48.580;7.756;2024-02-21T13:23:01;11.80;99.90
53272;DHT22;39160;48.580;7.756;2024-02-21T13:27:51;11.90;99.90
53272;DHT22;39160;48.580;7.756;2024-02-21T13:32:42;11.90;99.90
53272;DHT22;39160;48.580;7.756;2024-02-21T13:37:34;12.00;99.90
53272;DHT22;39160;48.580;7.756;2024-02-21T13:42:25;12.00;99.90
53272;DHT22;39160;48.580;7.756;2024-02-21T13:47:18;12.00;99.90
53272;DHT22;39160;48.580;7.756;2024-02-21T13:52:08;12.00;99.90
53272;DHT22;39160;48.580;7.756;2024-02-21T13:57:02;12.00;99.90
53272;DHT22;39160;48.580;7.756;2024-02-21T14:01:53;12.00;99.90
53272;DHT22;39160;48.580;7.756;2024-02-21T14:06:44;12.00;99.90
53272;DHT22;39160;48.580;7.756;2024-02-21T14:11:34;12.10;99.90
53272;DHT22;39160;48.580;7.756;2024-02-21T14:16:25;12.10;99.90
53272;DHT22;39160;48.580;7.756;2024-02-21T14:21:16;12.20;99.90
53272;DHT22;39160;48.580;7.756;2024-02-21T14:26:07;12.20;99.90
53272;DHT22;39160;48.580;7.756;2024-02-21T14:30:57;12.20;99.90
53272;DHT22;39160;48.580;7.756;2024-02-21T14:35:48;12.20;99.90
53272;DHT22;39160;48.580;7.756;2024-02-21T14:40:39;12.20;99.90
53272;DHT22;39160;48.580;7.756;2024-02-21T14:45:29;12.20;99.90
53272;DHT22;39160;48.580;7.756;2024-02-21T14:50:20;12.20;99.90
53272;DHT22;39160;48.580;7.756;2024-02-21T14:55:13;12.20;99.90
53272;DHT22;39160;48.580;7.756;2024-02-21T15:00:07;12.20;99.90
53272;DHT22;39160;48.580;7.756;2024-02-21T15:04:59;12.20;99.90
53272;DHT22;39160;48.580;7.756;2024-02-21T15:09:50;12.20;99.90
53272;DHT22;39160;48.580;7.756;2024-02-21T15:14:41;12.20;99.90
53272;DHT22;39160;48.580;7.756;2024-02-21T15:19:33;12.20;99.90
53272;DHT22;39160;48.580;7.756;2024-02-21T15:24:24;12.20;99.90
53272;DHT22;39160;48.580;7.756;2024-02-21T15:29:16;12.20;99.90
53272;DHT22;39160;48.580;7.756;2024-02-21T15:34:07;12.20;99.90
53272;DHT22;39160;48.580;7.756;2024-02-21T15:38:57;12.20;99.90
53272;DHT22;39160;48.580;7.756;2024-02-21T15:43:49;12.30;99.90
53272;DHT22;39160;48.580;7.756;2024-02-21T15:48:40;12.30;99.90
53272;DHT22;39160;48.580;7.756;2024-02-21T15:53:34;12.30;99.90
53272;DHT22;39160;48.580;7.756;2024-02-21T15:58:28;12.30;99.90
53272;DHT22;39160;48.580;7.756;2024-02-21T16:03:19;12.30;99.90
53272;DHT22;39160;48.580;7.756;2024-02-21T16:08:12;12.20;99.90
53272;DHT22;39160;48.580;7.756;2024-02-21T16:13:03;12.30;99.90
53272;DHT22;39160;48.580;7.756;2024-02-21T16:17:54;12.30;99.90
53272;DHT22;39160;48.580;7.756;2024-02-21T16:22:44;12.30;99.90
53272;DHT22;39160;48.580;7.756;2024-02-21T16:27:35;12.30;99.90
53272;DHT22;39160;48.580;7.756;2024-02-21T16:32:27;12.30;99.90
53272;DHT22;39160;48.580;7.756;2024-02-21T16:37:20;12.30;99.90
53272;DHT22;39160;48.580;7.756;2024-02-21T16:42:12;12.30;99.90
53272;DHT22;39160;48.580;7.756;2024-02-21T16:47:04;12.30;99.90
53272;DHT22;39160;48.580;7.756;2024-02-21T16:51:54;12.20;99.90
53272;DHT22;39160;48.580;7.756;2024-02-21T16:56:45;12.20;99.90
53272;DHT22;39160;48.580;7.756;2024-02-21T17:01:36;12.30;99.90
53272;DHT22;39160;48.580;7.756;2024-02-21T17:06:31;12.30;99.90
53272;DHT22;39160;48.580;7.756;2024-02-21T17:11:21;12.30;99.90
53272;DHT22;39160;48.580;7.756;2024-02-21T17:16:12;12.30;99.90
53272;DHT22;39160;48.580;7.756;2024-02-21T17:21:03;12.20;99.90
53272;DHT22;39160;48.580;7.756;2024-02-21T17:25:54;12.20;99.90
53272;DHT22;39160;48.580;7.756;2024-02-21T17:30:45;12.30;99.90
53272;DHT22;39160;48.580;7.756;2024-02-21T17:35:35;12.30;99.90
53272;DHT22;39160;48.580;7.756;2024-02-21T17:40:26;12.30;99.90
53272;DHT22;39160;48.580;7.756;2024-02-21T17:45:17;12.30;99.90
53272;DHT22;39160;48.580;7.756;2024-02-21T17:50:08;12.30;99.90
53272;DHT22;39160;48.580;7.756;2024-02-21T17:54:59;12.20;99.90
53272;DHT22;39160;48.580;7.756;2024-02-21T17:59:50;12.20;99.90
53272;DHT22;39160;48.580;7.756;2024-02-21T18:04:41;12.20;99.90
53272;DHT22;39160;48.580;7.756;2024-02-21T18:09:32;12.20;99.90
53272;DHT22;39160;48.580;7.756;2024-02-21T18:14:25;12.20;99.90
53272;DHT22;39160;48.580;7.756;2024-02-21T18:19:15;12.20;99.90
53272;DHT22;39160;48.580;7.756;2024-02-21T18:24:09;12.20;99.90
53272;DHT22;39160;48.580;7.756;2024-02-21T18:29:00;12.20;99.90
53272;DHT22;39160;48.580;7.756;2024-02-21T18:33:51;12.20;99.90
53272;DHT22;39160;48.580;7.756;2024-02-21T18:38:42;12.20;99.90
53272;DHT22;39160;48.580;7.756;2024-02-21T18:43:33;12.20;99.90
53272;DHT22;39160;48.580;7.756;2024-02-21T18:48:24;12.30;99.90
53272;DHT22;39160;48.580;7.756;2024-02-21T18:53:15;12.30;99.90
53272;DHT22;39160;48.580;7.756;2024-02-21T18:58:05;12.30;99.90
53272;DHT22;39160;48.580;7.756;2024-02-21T19:02:56;12.30;99.90
53272;DHT22;39160;48.580;7.756;2024-02-21T19:07:48;12.30;99.90
53272;DHT22;39160;48.580;7.756;2024-02-21T19:12:40;12.30;99.90
53272;DHT22;39160;48.580;7.756;2024-02-21T19:17:30;12.30;99.90
53272;DHT22;39160;48.580;7.756;2024-02-21T19:22:21;12.30;99.90
53272;DHT22;39160;48.580;7.756;2024-02-21T19:27:15;12.30;99.90
53272;DHT22;39160;48.580;7.756;2024-02-21T19:32:05;12.30;99.90
53272;DHT22;39160;48.580;7.756;2024-02-21T19:36:57;12.20;99.90
53272;DHT22;39160;48.580;7.756;2024-02-21T19:41:48;12.20;99.90
53272;DHT22;39160;48.580;7.756;2024-02-21T19:46:39;12.30;99.90
53272;DHT22;39160;48.580;7.756;2024-02-21T19:51:30;12.30;99.90
53272;DHT22;39160;48.580;7.756;2024-02-21T19:56:21;12.30;99.90
53272;DHT22;39160;48.580;7.756;2024-02-21T20:01:11;12.30;99.90
53272;DHT22;39160;48.580;7.756;2024-02-21T20:06:03;12.30;99.90
53272;DHT22;39160;48.580;7.756;2024-02-21T20:10:53;12.30;99.90
53272;DHT22;39160;48.580;7.756;2024-02-21T20:15:45;12.20;99.90
53272;DHT22;39160;48.580;7.756;2024-02-21T20:20:35;12.30;99.90
53272;DHT22;39160;48.580;7.756;2024-02-21T20:25:27;12.20;99.90
53272;DHT22;39160;48.580;7.756;2024-02-21T20:30:18;12.20;99.90
53272;DHT22;39160;48.580;7.756;2024-02-21T20:35:09;12.20;99.90
53272;DHT22;39160;48.580;7.756;2024-02-21T20:40:01;12.30;99.90
53272;DHT22;39160;48.580;7.756;2024-02-21T20:44:59;12.40;99.90
53272;DHT22;39160;48.580;7.756;2024-02-21T20:49:50;12.30;99.90
53272;DHT22;39160;48.580;7.756;2024-02-21T20:54:45;12.40;99.90
53272;DHT22;39160;48.580;7.756;2024-02-21T20:59:37;12.50;99.90
53272;DHT22;39160;48.580;7.756;2024-02-21T21:04:28;12.50;99.90
53272;DHT22;39160;48.580;7.756;2024-02-21T21:09:18;12.40;99.90
53272;DHT22;39160;48.580;7.756;2024-02-21T21:14:10;12.40;99.90
53272;DHT22;39160;48.580;7.756;2024-02-21T21:19:01;12.50;99.90
53272;DHT22;39160;48.580;7.756;2024-02-21T21:23:51;12.60;99.90
53272;DHT22;39160;48.580;7.756;2024-02-21T21:28:42;12.60;99.90
53272;DHT22;39160;48.580;7.756;2024-02-21T21:33:33;12.60;99.90
53272;DHT22;39160;48.580;7.756;2024-02-21T21:38:23;12.60;99.90
53272;DHT22;39160;48.580;7.756;2024-02-21T21:43:14;12.50;99.90
53272;DHT22;39160;48.580;7.756;2024-02-21T21:48:06;12.60;99.90
53272;DHT22;39160;48.580;7.756;2024-02-21T21:52:57;12.60;99.90
53272;DHT22;39160;48.580;7.756;2024-02-21T21:57:50;12.70;99.90
53272;DHT22;39160;48.580;7.756;2024-02-21T22:02:42;12.70;99.90
53272;DHT22;39160;48.580;7.756;2024-02-21T22:07:37;12.70;99.90
53272;DHT22;39160;48.580;7.756;2024-02-21T22:12:28;12.70;99.90
53272;DHT22;39160;48.580;7.756;2024-02-21T22:17:18;12.60;99.90
53272;DHT22;39160;48.580;7.756;2024-02-21T22:22:12;12.60;99.90
53272;DHT22;39160;48.580;7.756;2024-02-21T22:27:03;12.70;99.90
53272;DHT22;39160;48.580;7.756;2024-02-21T22:31:59;12.70;99.90
53272;DHT22;39160;48.580;7.756;2024-02-21T22:36:52;12.70;99.90
53272;DHT22;39160;48.580;7.756;2024-02-21T22:41:42;12.70;99.90
53272;DHT22;39160;48.580;7.756;2024-02-21T22:46:38;12.70;99.90
53272;DHT22;39160;48.580;7.756;2024-02-21T22:51:36;12.70;99.90
53272;DHT22;39160;48.580;7.756;2024-02-21T22:56:27;12.70;99.90
53272;DHT22;39160;48.580;7.756;2024-02-21T23:01:18;12.70;99.90
53272;DHT22;39160;48.580;7.756;2024-02-21T23:06:12;12.70;99.90
53272;DHT22;39160;48.580;7.756;2024-02-21T23:11:21;12.60;99.90
53272;DHT22;39160;48.580;7.756;2024-02-21T23:16:20;12.70;99.90
53272;DHT22;39160;48.580;7.756;2024-02-21T23:21:11;12.70;99.90
53272;DHT22;39160;48.580;7.756;2024-02-21T23:26:02;12.60;99.90
53272;DHT22;39160;48.580;7.756;2024-02-21T23:30:55;12.60;99.90
53272;DHT22;39160;48.580;7.756;2024-02-21T23:35:54;12.60;99.90
53272;DHT22;39160;48.580;7.756;2024-02-21T23:40:47;12.60;99.90
53272;DHT22;39160;48.580;7.756;2024-02-21T23:45:38;12.50;99.90
53272;DHT22;39160;48.580;7.756;2024-02-21T23:50:29;12.50;99.90
53272;DHT22;39160;48.580;7.756;2024-02-21T23:55:20;12.50;99.90
